sensor_id;sensor_type;location;lat;lon;timestamp;P1;durP1;ratioP1;P2;durP2;ratioP2
6902;SDS011;20232;49.408;8.702;2023-08-01T04:02:44;7.33;;;5.50;;
6902;SDS011;20232;49.408;8.702;2023-08-01T04:05:10;6.97;;;5.57;;
6902;SDS011;20232;49.408;8.702;2023-08-01T04:07:36;6.97;;;5.30;;
6902;SDS011;20232;49.408;8.702;2023-08-01T04:10:02;7.10;;;5.43;;
6902;SDS011;20232;49.408;8.702;2023-08-01T04:12:28;7.50;;;5.33;;
6902;SDS011;20232;49.408;8.702;2023-08-01T04:14:54;8.07;;;5.40;;
6902;SDS011;20232;49.408;8.702;2023-08-01T04:17:20;10.87;;;6.07;;
6902;SDS011;20232;49.408;8.702;2023-08-01T04:19:45;6.63;;;5.17;;
6902;SDS011;20232;49.408;8.702;2023-08-01T04:22:10;8.53;;;5.60;;
6902;SDS011;20232;49.408;8.702;2023-08-01T04:24:36;7.23;;;5.60;;
6902;SDS011;20232;49.408;8.702;2023-08-01T04:27:01;8.33;;;5.63;;
6902;SDS011;20232;49.408;8.702;2023-08-01T04:29:27;8.83;;;6.33;;
6902;SDS011;20232;49.408;8.702;2023-08-01T04:31:52;8.67;;;5.10;;
6902;SDS011;20232;49.408;8.702;2023-08-01T04:34:18;6.57;;;5.37;;
6902;SDS011;20232;49.408;8.702;2023-08-01T04:36:43;8.13;;;5.43;;
6902;SDS011;20232;49.408;8.702;2023-08-01T04:39:08;8.03;;;5.57;;
6902;SDS011;20232;49.408;8.702;2023-08-01T04:41:34;9.47;;;5.30;;
6902;SDS011;20232;49.408;8.702;2023-08-01T04:43:59;8.20;;;5.57;;
6902;SDS011;20232;49.408;8.702;2023-08-01T04:46:25;7.83;;;5.87;;
6902;SDS011;20232;49.408;8.702;2023-08-01T04:48:50;9.20;;;5.57;;
6902;SDS011;20232;49.408;8.702;2023-08-01T04:51:15;5.60;;;5.07;;
6902;SDS011;20232;49.408;8.702;2023-08-01T04:53:41;7.30;;;5.17;;
6902;SDS011;20232;49.408;8.702;2023-08-01T04:56:06;9.70;;;5.97;;
6902;SDS011;20232;49.408;8.702;2023-08-01T04:58:31;8.63;;;5.50;;
6902;SDS011;20232;49.408;8.702;2023-08-01T05:00:57;8.87;;;5.50;;
6902;SDS011;20232;49.408;8.702;2023-08-01T05:03:22;8.40;;;5.63;;
6902;SDS011;20232;49.408;8.702;2023-08-01T05:05:48;8.37;;;5.80;;
6902;SDS011;20232;49.408;8.702;2023-08-01T05:08:13;7.67;;;5.93;;
6902;SDS011;20232;49.408;8.702;2023-08-01T05:10:38;8.63;;;5.37;;
6902;SDS011;20232;49.408;8.702;2023-08-01T05:13:04;7.30;;;5.77;;
6902;SDS011;20232;49.408;8.702;2023-08-01T05:15:29;9.23;;;5.87;;
6902;SDS011;20232;49.408;8.702;2023-08-01T05:17:55;8.07;;;5.50;;
6902;SDS011;20232;49.408;8.702;2023-08-01T05:20:21;8.47;;;5.73;;
6902;SDS011;20232;49.408;8.702;2023-08-01T05:22:46;11.07;;;5.60;;
6902;SDS011;20232;49.408;8.702;2023-08-01T05:25:11;11.40;;;5.60;;
6902;SDS011;20232;49.408;8.702;2023-08-01T05:27:37;8.00;;;6.03;;
6902;SDS011;20232;49.408;8.702;2023-08-01T05:30:02;9.13;;;5.97;;
6902;SDS011;20232;49.408;8.702;2023-08-01T05:32:28;11.90;;;6.20;;
6902;SDS011;20232;49.408;8.702;2023-08-01T05:34:53;9.70;;;6.17;;
6902;SDS011;20232;49.408;8.702;2023-08-01T05:37:19;11.53;;;6.00;;
6902;SDS011;20232;49.408;8.702;2023-08-01T05:39:44;10.87;;;6.73;;
6902;SDS011;20232;49.408;8.702;2023-08-01T05:42:10;9.23;;;6.40;;
6902;SDS011;20232;49.408;8.702;2023-08-01T05:44:35;10.17;;;6.23;;
6902;SDS011;20232;49.408;8.702;2023-08-01T05:47:00;12.77;;;6.63;;
6902;SDS011;20232;49.408;8.702;2023-08-01T05:49:26;7.93;;;6.50;;
6902;SDS011;20232;49.408;8.702;2023-08-01T05:51:51;10.40;;;6.37;;
6902;SDS011;20232;49.408;8.702;2023-08-01T05:54:17;12.17;;;6.40;;
6902;SDS011;20232;49.408;8.702;2023-08-01T05:56:42;10.37;;;7.07;;
6902;SDS011;20232;49.408;8.702;2023-08-01T05:59:08;12.17;;;7.70;;
6902;SDS011;20232;49.408;8.702;2023-08-01T06:01:33;10.43;;;7.37;;
6902;SDS011;20232;49.408;8.702;2023-08-01T06:03:59;11.53;;;8.10;;
6902;SDS011;20232;49.408;8.702;2023-08-01T06:06:24;11.37;;;7.90;;
6902;SDS011;20232;49.408;8.702;2023-08-01T06:08:50;12.37;;;7.63;;
6902;SDS011;20232;49.408;8.702;2023-08-01T06:11:16;12.83;;;8.20;;
6902;SDS011;20232;49.408;8.702;2023-08-01T06:13:42;11.67;;;8.10;;
6902;SDS011;20232;49.408;8.702;2023-08-01T06:16:07;11.13;;;8.87;;
6902;SDS011;20232;49.408;8.702;2023-08-01T06:18:32;12.43;;;8.00;;
6902;SDS011;20232;49.408;8.702;2023-08-01T06:20:58;11.50;;;8.33;;
6902;SDS011;20232;49.408;8.702;2023-08-01T06:23:23;14.40;;;8.13;;
6902;SDS011;20232;49.408;8.702;2023-08-01T06:25:49;12.47;;;8.50;;
6902;SDS011;20232;49.408;8.702;2023-08-01T06:28:14;15.83;;;8.57;;
6902;SDS011;20232;49.408;8.702;2023-08-01T06:30:39;15.43;;;8.67;;
6902;SDS011;20232;49.408;8.702;2023-08-01T06:33:05;14.97;;;8.57;;
6902;SDS011;20232;49.408;8.702;2023-08-01T06:35:30;12.60;;;8.00;;
6902;SDS011;20232;49.408;8.702;2023-08-01T06:37:56;14.57;;;8.60;;
6902;SDS011;20232;49.408;8.702;2023-08-01T06:40:21;12.10;;;8.43;;
6902;SDS011;20232;49.408;8.702;2023-08-01T06:42:46;16.03;;;8.90;;
6902;SDS011;20232;49.408;8.702;2023-08-01T06:45:12;11.87;;;8.33;;
6902;SDS011;20232;49.408;8.702;2023-08-01T06:47:37;14.00;;;8.47;;
6902;SDS011;20232;49.408;8.702;2023-08-01T06:50:03;13.13;;;8.20;;
6902;SDS011;20232;49.408;8.702;2023-08-01T06:52:30;10.40;;;8.20;;
6902;SDS011;20232;49.408;8.702;2023-08-01T06:54:55;12.87;;;7.73;;
6902;SDS011;20232;49.408;8.702;2023-08-01T06:57:20;9.63;;;7.10;;
6902;SDS011;20232;49.408;8.702;2023-08-01T06:59:46;10.73;;;7.27;;
6902;SDS011;20232;49.408;8.702;2023-08-01T07:02:11;9.20;;;6.13;;
6902;SDS011;20232;49.408;8.702;2023-08-01T07:04:37;10.57;;;7.30;;
6902;SDS011;20232;49.408;8.702;2023-08-01T07:07:03;7.47;;;6.33;;
6902;SDS011;20232;49.408;8.702;2023-08-01T07:09:28;8.83;;;6.10;;
6902;SDS011;20232;49.408;8.702;2023-08-01T07:11:54;9.43;;;5.97;;
6902;SDS011;20232;49.408;8.702;2023-08-01T07:14:19;9.60;;;6.00;;
6902;SDS011;20232;49.408;8.702;2023-08-01T07:16:45;7.30;;;5.57;;
6902;SDS011;20232;49.408;8.702;2023-08-01T07:19:10;6.67;;;5.07;;
6902;SDS011;20232;49.408;8.702;2023-08-01T07:21:36;6.80;;;4.83;;
6902;SDS011;20232;49.408;8.702;2023-08-01T07:24:01;7.07;;;5.40;;
6902;SDS011;20232;49.408;8.702;2023-08-01T07:26:27;6.63;;;5.30;;
6902;SDS011;20232;49.408;8.702;2023-08-01T07:28:56;8.13;;;4.97;;
6902;SDS011;20232;49.408;8.702;2023-08-01T07:31:22;6.47;;;4.97;;
6902;SDS011;20232;49.408;8.702;2023-08-01T07:33:47;6.57;;;5.47;;
6902;SDS011;20232;49.408;8.702;2023-08-01T07:36:13;6.80;;;5.00;;
6902;SDS011;20232;49.408;8.702;2023-08-01T07:38:38;5.90;;;4.60;;
6902;SDS011;20232;49.408;8.702;2023-08-01T07:41:04;7.50;;;5.07;;
6902;SDS011;20232;49.408;8.702;2023-08-01T07:43:32;6.60;;;5.03;;
6902;SDS011;20232;49.408;8.702;2023-08-01T07:45:58;6.40;;;4.87;;
6902;SDS011;20232;49.408;8.702;2023-08-01T07:48:23;6.47;;;5.23;;
6902;SDS011;20232;49.408;8.702;2023-08-01T07:50:49;7.17;;;5.23;;
6902;SDS011;20232;49.408;8.702;2023-08-01T07:53:14;6.20;;;5.00;;
6902;SDS011;20232;49.408;8.702;2023-08-01T07:55:39;6.00;;;5.40;;
6902;SDS011;20232;49.408;8.702;2023-08-01T07:58:05;6.37;;;5.27;;
6902;SDS011;20232;49.408;8.702;2023-08-01T08:00:30;6.07;;;5.17;;
6902;SDS011;20232;49.408;8.702;2023-08-01T08:02:56;8.37;;;5.60;;
6902;SDS011;20232;49.408;8.702;2023-08-01T08:05:21;8.50;;;5.50;;
6902;SDS011;20232;49.408;8.702;2023-08-01T08:07:46;7.27;;;5.40;;
6902;SDS011;20232;49.408;8.702;2023-08-01T08:10:12;8.07;;;5.60;;
6902;SDS011;20232;49.408;8.702;2023-08-01T08:12:37;7.13;;;4.80;;
6902;SDS011;20232;49.408;8.702;2023-08-01T08:15:03;6.67;;;4.70;;
6902;SDS011;20232;49.408;8.702;2023-08-01T08:17:28;5.60;;;4.67;;
6902;SDS011;20232;49.408;8.702;2023-08-01T08:19:54;9.03;;;5.47;;
6902;SDS011;20232;49.408;8.702;2023-08-01T08:22:19;4.90;;;4.40;;
6902;SDS011;20232;49.408;8.702;2023-08-01T08:24:44;6.27;;;4.60;;
6902;SDS011;20232;49.408;8.702;2023-08-01T08:27:10;4.57;;;4.10;;
6902;SDS011;20232;49.408;8.702;2023-08-01T08:29:35;4.77;;;4.07;;
6902;SDS011;20232;49.408;8.702;2023-08-01T08:32:01;4.77;;;4.03;;
6902;SDS011;20232;49.408;8.702;2023-08-01T08:34:26;5.07;;;4.30;;
6902;SDS011;20232;49.408;8.702;2023-08-01T08:36:52;4.40;;;4.00;;
6902;SDS011;20232;49.408;8.702;2023-08-01T08:39:17;5.47;;;4.30;;
6902;SDS011;20232;49.408;8.702;2023-08-01T08:41:47;4.90;;;4.07;;
6902;SDS011;20232;49.408;8.702;2023-08-01T08:44:15;5.57;;;4.10;;
6902;SDS011;20232;49.408;8.702;2023-08-01T08:46:42;4.53;;;4.00;;
6902;SDS011;20232;49.408;8.702;2023-08-01T08:49:08;5.90;;;4.00;;
6902;SDS011;20232;49.408;8.702;2023-08-01T08:51:34;4.80;;;4.17;;
6902;SDS011;20232;49.408;8.702;2023-08-01T08:54:02;4.90;;;4.20;;
6902;SDS011;20232;49.408;8.702;2023-08-01T08:56:28;4.97;;;4.30;;
6902;SDS011;20232;49.408;8.702;2023-08-01T08:58:54;5.70;;;4.13;;
6902;SDS011;20232;49.408;8.702;2023-08-01T09:01:20;5.53;;;3.93;;
6902;SDS011;20232;49.408;8.702;2023-08-01T09:03:45;3.87;;;3.37;;
6902;SDS011;20232;49.408;8.702;2023-08-01T09:06:18;3.70;;;3.07;;
6902;SDS011;20232;49.408;8.702;2023-08-01T09:08:49;5.67;;;3.40;;
6902;SDS011;20232;49.408;8.702;2023-08-01T09:11:17;4.83;;;3.00;;
6902;SDS011;20232;49.408;8.702;2023-08-01T09:13:42;3.97;;;3.00;;
6902;SDS011;20232;49.408;8.702;2023-08-01T09:16:08;2.80;;;2.60;;
6902;SDS011;20232;49.408;8.702;2023-08-01T09:18:35;2.50;;;2.00;;
6902;SDS011;20232;49.408;8.702;2023-08-01T09:21:00;2.00;;;1.90;;
6902;SDS011;20232;49.408;8.702;2023-08-01T09:23:27;1.60;;;1.50;;
6902;SDS011;20232;49.408;8.702;2023-08-01T09:25:53;2.07;;;1.50;;
6902;SDS011;20232;49.408;8.702;2023-08-01T09:28:19;2.10;;;1.43;;
6902;SDS011;20232;49.408;8.702;2023-08-01T09:30:49;1.40;;;1.30;;
6902;SDS011;20232;49.408;8.702;2023-08-01T09:33:22;1.20;;;1.20;;
6902;SDS011;20232;49.408;8.702;2023-08-01T09:35:51;1.60;;;1.50;;
6902;SDS011;20232;49.408;8.702;2023-08-01T09:38:17;2.03;;;1.30;;
6902;SDS011;20232;49.408;8.702;2023-08-01T09:40:43;1.30;;;1.20;;
6902;SDS011;20232;49.408;8.702;2023-08-01T09:43:12;2.63;;;1.13;;
6902;SDS011;20232;49.408;8.702;2023-08-01T09:45:48;1.53;;;1.40;;
6902;SDS011;20232;49.408;8.702;2023-08-01T09:48:21;2.73;;;1.73;;
6902;SDS011;20232;49.408;8.702;2023-08-01T09:51:10;1.30;;;1.20;;
6902;SDS011;20232;49.408;8.702;2023-08-01T09:56:14;1.77;;;1.50;;
6902;SDS011;20232;49.408;8.702;2023-08-01T09:58:42;2.80;;;1.20;;
6902;SDS011;20232;49.408;8.702;2023-08-01T10:01:08;1.27;;;1.17;;
6902;SDS011;20232;49.408;8.702;2023-08-01T10:03:33;1.20;;;1.10;;
6902;SDS011;20232;49.408;8.702;2023-08-01T10:05:59;1.73;;;1.13;;
6902;SDS011;20232;49.408;8.702;2023-08-01T10:08:24;2.53;;;1.17;;
6902;SDS011;20232;49.408;8.702;2023-08-01T10:10:50;2.53;;;1.20;;
6902;SDS011;20232;49.408;8.702;2023-08-01T10:13:16;2.60;;;1.20;;
6902;SDS011;20232;49.408;8.702;2023-08-01T10:15:42;1.30;;;1.20;;
6902;SDS011;20232;49.408;8.702;2023-08-01T10:18:08;2.03;;;1.20;;
6902;SDS011;20232;49.408;8.702;2023-08-01T10:20:35;1.20;;;1.00;;
6902;SDS011;20232;49.408;8.702;2023-08-01T10:23:01;1.37;;;1.27;;
6902;SDS011;20232;49.408;8.702;2023-08-01T10:25:28;2.00;;;1.20;;
6902;SDS011;20232;49.408;8.702;2023-08-01T10:28:01;1.40;;;1.30;;
6902;SDS011;20232;49.408;8.702;2023-08-01T10:30:27;2.33;;;1.40;;
6902;SDS011;20232;49.408;8.702;2023-08-01T10:32:54;1.57;;;1.40;;
6902;SDS011;20232;49.408;8.702;2023-08-01T10:35:30;1.13;;;1.13;;
6902;SDS011;20232;49.408;8.702;2023-08-01T10:38:06;4.30;;;1.80;;
6902;SDS011;20232;49.408;8.702;2023-08-01T10:40:36;1.30;;;1.20;;
6902;SDS011;20232;49.408;8.702;2023-08-01T10:43:04;1.57;;;1.30;;
6902;SDS011;20232;49.408;8.702;2023-08-01T10:45:29;1.87;;;1.33;;
6902;SDS011;20232;49.408;8.702;2023-08-01T10:48:05;1.70;;;1.60;;
6902;SDS011;20232;49.408;8.702;2023-08-01T10:50:35;1.40;;;1.30;;
6902;SDS011;20232;49.408;8.702;2023-08-01T10:53:04;2.07;;;1.70;;
6902;SDS011;20232;49.408;8.702;2023-08-01T10:55:40;1.60;;;1.50;;
6902;SDS011;20232;49.408;8.702;2023-08-01T10:58:06;3.37;;;1.53;;
6902;SDS011;20232;49.408;8.702;2023-08-01T11:00:32;1.90;;;1.63;;
6902;SDS011;20232;49.408;8.702;2023-08-01T11:02:57;2.40;;;1.20;;
6902;SDS011;20232;49.408;8.702;2023-08-01T11:05:23;1.53;;;1.40;;
6902;SDS011;20232;49.408;8.702;2023-08-01T11:07:54;1.30;;;1.20;;
6902;SDS011;20232;49.408;8.702;2023-08-01T11:10:24;1.90;;;1.20;;
6902;SDS011;20232;49.408;8.702;2023-08-01T11:12:50;1.40;;;1.20;;
6902;SDS011;20232;49.408;8.702;2023-08-01T11:15:16;1.30;;;1.20;;
6902;SDS011;20232;49.408;8.702;2023-08-01T11:17:42;1.50;;;1.27;;
6902;SDS011;20232;49.408;8.702;2023-08-01T11:20:13;3.00;;;1.43;;
6902;SDS011;20232;49.408;8.702;2023-08-01T11:22:48;1.93;;;1.43;;
6902;SDS011;20232;49.408;8.702;2023-08-01T11:25:19;1.70;;;1.60;;
6902;SDS011;20232;49.408;8.702;2023-08-01T11:27:56;2.77;;;1.60;;
6902;SDS011;20232;49.408;8.702;2023-08-01T11:30:29;2.10;;;1.33;;
6902;SDS011;20232;49.408;8.702;2023-08-01T11:32:55;1.57;;;1.40;;
6902;SDS011;20232;49.408;8.702;2023-08-01T11:35:20;1.73;;;1.30;;
6902;SDS011;20232;49.408;8.702;2023-08-01T11:37:46;2.70;;;1.40;;
6902;SDS011;20232;49.408;8.702;2023-08-01T11:40:12;2.30;;;1.43;;
6902;SDS011;20232;49.408;8.702;2023-08-01T11:42:37;1.67;;;1.50;;
6902;SDS011;20232;49.408;8.702;2023-08-01T11:45:10;3.53;;;1.53;;
6902;SDS011;20232;49.408;8.702;2023-08-01T11:47:36;1.37;;;1.27;;
6902;SDS011;20232;49.408;8.702;2023-08-01T11:50:01;2.30;;;1.43;;
6902;SDS011;20232;49.408;8.702;2023-08-01T11:52:27;2.80;;;1.70;;
6902;SDS011;20232;49.408;8.702;2023-08-01T11:54:53;4.53;;;1.40;;
6902;SDS011;20232;49.408;8.702;2023-08-01T11:57:22;2.53;;;1.60;;
6902;SDS011;20232;49.408;8.702;2023-08-01T11:59:52;1.83;;;1.40;;
6902;SDS011;20232;49.408;8.702;2023-08-01T12:02:28;2.40;;;1.37;;
6902;SDS011;20232;49.408;8.702;2023-08-01T12:04:57;1.63;;;1.40;;
6902;SDS011;20232;49.408;8.702;2023-08-01T12:07:24;2.70;;;1.50;;
6902;SDS011;20232;49.408;8.702;2023-08-01T12:12:22;1.50;;;1.40;;
6902;SDS011;20232;49.408;8.702;2023-08-01T12:14:48;1.40;;;1.30;;
6902;SDS011;20232;49.408;8.702;2023-08-01T12:17:13;1.33;;;1.23;;
6902;SDS011;20232;49.408;8.702;2023-08-01T12:19:39;2.20;;;1.63;;
6902;SDS011;20232;49.408;8.702;2023-08-01T12:22:04;1.57;;;1.40;;
6902;SDS011;20232;49.408;8.702;2023-08-01T12:24:29;3.33;;;1.60;;
6902;SDS011;20232;49.408;8.702;2023-08-01T12:26:55;2.20;;;1.60;;
6902;SDS011;20232;49.408;8.702;2023-08-01T12:29:20;2.03;;;1.57;;
6902;SDS011;20232;49.408;8.702;2023-08-01T12:31:46;1.90;;;1.70;;
6902;SDS011;20232;49.408;8.702;2023-08-01T12:34:11;2.47;;;1.70;;
6902;SDS011;20232;49.408;8.702;2023-08-01T12:36:37;1.80;;;1.67;;
6902;SDS011;20232;49.408;8.702;2023-08-01T12:39:02;3.77;;;1.70;;
6902;SDS011;20232;49.408;8.702;2023-08-01T12:41:28;3.87;;;1.80;;
6902;SDS011;20232;49.408;8.702;2023-08-01T12:43:54;1.80;;;1.70;;
6902;SDS011;20232;49.408;8.702;2023-08-01T12:46:19;2.40;;;1.57;;
6902;SDS011;20232;49.408;8.702;2023-08-01T12:48:45;1.80;;;1.60;;
6902;SDS011;20232;49.408;8.702;2023-08-01T12:51:11;1.53;;;1.43;;
6902;SDS011;20232;49.408;8.702;2023-08-01T12:53:36;3.33;;;1.77;;
6902;SDS011;20232;49.408;8.702;2023-08-01T12:56:06;3.17;;;1.70;;
6902;SDS011;20232;49.408;8.702;2023-08-01T12:58:31;2.90;;;1.70;;
6902;SDS011;20232;49.408;8.702;2023-08-01T13:00:57;3.50;;;1.70;;
6902;SDS011;20232;49.408;8.702;2023-08-01T13:03:22;2.40;;;1.50;;
6902;SDS011;20232;49.408;8.702;2023-08-01T13:05:47;2.17;;;1.40;;
6902;SDS011;20232;49.408;8.702;2023-08-01T13:08:13;2.97;;;1.53;;
6902;SDS011;20232;49.408;8.702;2023-08-01T13:10:38;3.30;;;1.50;;
6902;SDS011;20232;49.408;8.702;2023-08-01T13:13:04;2.03;;;1.50;;
6902;SDS011;20232;49.408;8.702;2023-08-01T13:15:30;1.57;;;1.47;;
6902;SDS011;20232;49.408;8.702;2023-08-01T13:17:55;1.63;;;1.53;;
6902;SDS011;20232;49.408;8.702;2023-08-01T13:20:21;2.97;;;1.60;;
6902;SDS011;20232;49.408;8.702;2023-08-01T13:22:48;2.97;;;1.80;;
6902;SDS011;20232;49.408;8.702;2023-08-01T13:25:14;2.67;;;1.63;;
6902;SDS011;20232;49.408;8.702;2023-08-01T13:27:40;2.27;;;1.60;;
6902;SDS011;20232;49.408;8.702;2023-08-01T13:30:06;2.20;;;1.67;;
6902;SDS011;20232;49.408;8.702;2023-08-01T13:32:33;3.77;;;1.60;;
6902;SDS011;20232;49.408;8.702;2023-08-01T13:34:58;3.37;;;1.70;;
6902;SDS011;20232;49.408;8.702;2023-08-01T13:37:24;1.90;;;1.70;;
6902;SDS011;20232;49.408;8.702;2023-08-01T13:39:49;2.90;;;1.67;;
6902;SDS011;20232;49.408;8.702;2023-08-01T13:42:14;1.60;;;1.50;;
6902;SDS011;20232;49.408;8.702;2023-08-01T13:44:40;2.60;;;1.80;;
6902;SDS011;20232;49.408;8.702;2023-08-01T13:47:06;2.67;;;1.90;;
6902;SDS011;20232;49.408;8.702;2023-08-01T13:49:31;4.27;;;1.97;;
6902;SDS011;20232;49.408;8.702;2023-08-01T13:51:58;2.67;;;1.90;;
6902;SDS011;20232;49.408;8.702;2023-08-01T13:54:23;2.13;;;1.80;;
6902;SDS011;20232;49.408;8.702;2023-08-01T13:56:49;4.20;;;1.70;;
6902;SDS011;20232;49.408;8.702;2023-08-01T13:59:14;2.13;;;1.80;;
6902;SDS011;20232;49.408;8.702;2023-08-01T14:01:40;2.93;;;1.80;;
6902;SDS011;20232;49.408;8.702;2023-08-01T14:04:05;2.10;;;1.67;;
6902;SDS011;20232;49.408;8.702;2023-08-01T14:06:31;4.47;;;2.00;;
6902;SDS011;20232;49.408;8.702;2023-08-01T14:08:56;1.70;;;1.57;;
6902;SDS011;20232;49.408;8.702;2023-08-01T14:11:21;2.77;;;1.60;;
6902;SDS011;20232;49.408;8.702;2023-08-01T14:13:48;3.00;;;1.47;;
6902;SDS011;20232;49.408;8.702;2023-08-01T14:16:14;2.00;;;1.60;;
6902;SDS011;20232;49.408;8.702;2023-08-01T14:18:39;1.60;;;1.50;;
6902;SDS011;20232;49.408;8.702;2023-08-01T14:21:05;1.57;;;1.30;;
6902;SDS011;20232;49.408;8.702;2023-08-01T14:23:30;1.70;;;1.60;;
6902;SDS011;20232;49.408;8.702;2023-08-01T14:25:57;2.73;;;1.80;;
6902;SDS011;20232;49.408;8.702;2023-08-01T14:28:23;1.97;;;1.77;;
6902;SDS011;20232;49.408;8.702;2023-08-01T14:30:48;2.50;;;1.57;;
6902;SDS011;20232;49.408;8.702;2023-08-01T14:33:14;2.67;;;1.57;;
6902;SDS011;20232;49.408;8.702;2023-08-01T14:35:39;2.13;;;1.60;;
6902;SDS011;20232;49.408;8.702;2023-08-01T14:38:05;2.57;;;1.60;;
6902;SDS011;20232;49.408;8.702;2023-08-01T14:40:30;2.97;;;1.80;;
6902;SDS011;20232;49.408;8.702;2023-08-01T14:42:56;1.67;;;1.47;;
6902;SDS011;20232;49.408;8.702;2023-08-01T14:45:22;1.80;;;1.50;;
6902;SDS011;20232;49.408;8.702;2023-08-01T14:47:47;4.17;;;1.70;;
6902;SDS011;20232;49.408;8.702;2023-08-01T14:50:13;2.40;;;1.83;;
6902;SDS011;20232;49.408;8.702;2023-08-01T14:52:39;2.00;;;1.50;;
6902;SDS011;20232;49.408;8.702;2023-08-01T14:55:05;3.27;;;1.60;;
6902;SDS011;20232;49.408;8.702;2023-08-01T14:57:31;3.13;;;1.50;;
6902;SDS011;20232;49.408;8.702;2023-08-01T14:59:56;2.87;;;1.53;;
6902;SDS011;20232;49.408;8.702;2023-08-01T15:02:22;1.87;;;1.67;;
6902;SDS011;20232;49.408;8.702;2023-08-01T15:04:51;1.57;;;1.43;;
6902;SDS011;20232;49.408;8.702;2023-08-01T15:07:17;2.80;;;1.47;;
6902;SDS011;20232;49.408;8.702;2023-08-01T15:09:43;2.57;;;1.57;;
6902;SDS011;20232;49.408;8.702;2023-08-01T15:12:08;2.30;;;1.67;;
6902;SDS011;20232;49.408;8.702;2023-08-01T15:14:34;3.00;;;1.57;;
6902;SDS011;20232;49.408;8.702;2023-08-01T15:16:59;2.07;;;1.67;;
6902;SDS011;20232;49.408;8.702;2023-08-01T15:19:25;2.50;;;2.30;;
6902;SDS011;20232;49.408;8.702;2023-08-01T15:21:50;2.37;;;1.50;;
6902;SDS011;20232;49.408;8.702;2023-08-01T15:24:15;1.97;;;1.80;;
6902;SDS011;20232;49.408;8.702;2023-08-01T15:26:41;3.47;;;1.40;;
6902;SDS011;20232;49.408;8.702;2023-08-01T15:29:06;1.70;;;1.40;;
6902;SDS011;20232;49.408;8.702;2023-08-01T15:31:32;2.80;;;1.50;;
6902;SDS011;20232;49.408;8.702;2023-08-01T15:33:59;1.50;;;1.40;;
6902;SDS011;20232;49.408;8.702;2023-08-01T15:36:25;2.60;;;1.57;;
6902;SDS011;20232;49.408;8.702;2023-08-01T15:38:52;2.30;;;1.60;;
6902;SDS011;20232;49.408;8.702;2023-08-01T15:41:17;3.37;;;1.70;;
6902;SDS011;20232;49.408;8.702;2023-08-01T15:43:42;2.10;;;1.60;;
6902;SDS011;20232;49.408;8.702;2023-08-01T15:46:08;1.77;;;1.53;;
6902;SDS011;20232;49.408;8.702;2023-08-01T15:48:34;2.13;;;1.57;;
6902;SDS011;20232;49.408;8.702;2023-08-01T15:51:01;2.53;;;1.60;;
6902;SDS011;20232;49.408;8.702;2023-08-01T15:53:27;2.27;;;1.53;;
6902;SDS011;20232;49.408;8.702;2023-08-01T15:58:21;2.37;;;1.77;;
6902;SDS011;20232;49.408;8.702;2023-08-01T16:00:47;4.50;;;1.77;;
6902;SDS011;20232;49.408;8.702;2023-08-01T16:03:12;2.90;;;1.97;;
6902;SDS011;20232;49.408;8.702;2023-08-01T16:05:37;3.50;;;1.80;;
6902;SDS011;20232;49.408;8.702;2023-08-01T16:08:04;2.20;;;1.70;;
6902;SDS011;20232;49.408;8.702;2023-08-01T16:10:30;3.00;;;1.70;;
6902;SDS011;20232;49.408;8.702;2023-08-01T16:12:55;2.80;;;1.70;;
6902;SDS011;20232;49.408;8.702;2023-08-01T16:15:21;2.07;;;1.70;;
6902;SDS011;20232;49.408;8.702;2023-08-01T16:17:46;3.87;;;1.77;;
6902;SDS011;20232;49.408;8.702;2023-08-01T16:20:13;2.90;;;1.73;;
6902;SDS011;20232;49.408;8.702;2023-08-01T16:22:39;2.70;;;1.80;;
6902;SDS011;20232;49.408;8.702;2023-08-01T16:25:06;2.30;;;1.77;;
6902;SDS011;20232;49.408;8.702;2023-08-01T16:27:31;1.60;;;1.50;;
6902;SDS011;20232;49.408;8.702;2023-08-01T16:29:57;2.90;;;1.80;;
6902;SDS011;20232;49.408;8.702;2023-08-01T16:32:22;1.97;;;1.70;;
6902;SDS011;20232;49.408;8.702;2023-08-01T16:34:47;2.60;;;1.80;;
6902;SDS011;20232;49.408;8.702;2023-08-01T16:37:13;2.77;;;1.80;;
6902;SDS011;20232;49.408;8.702;2023-08-01T16:39:38;3.30;;;2.00;;
6902;SDS011;20232;49.408;8.702;2023-08-01T16:42:05;3.77;;;2.20;;
6902;SDS011;20232;49.408;8.702;2023-08-01T16:44:31;2.63;;;1.97;;
6902;SDS011;20232;49.408;8.702;2023-08-01T16:46:56;7.73;;;1.83;;
6902;SDS011;20232;49.408;8.702;2023-08-01T16:49:22;4.37;;;2.30;;
6902;SDS011;20232;49.408;8.702;2023-08-01T16:51:47;2.20;;;1.70;;
6902;SDS011;20232;49.408;8.702;2023-08-01T16:54:12;3.17;;;1.73;;
6902;SDS011;20232;49.408;8.702;2023-08-01T16:56:38;2.63;;;1.83;;
6902;SDS011;20232;49.408;8.702;2023-08-01T16:59:03;3.57;;;1.83;;
6902;SDS011;20232;49.408;8.702;2023-08-01T17:01:29;2.17;;;1.80;;
6902;SDS011;20232;49.408;8.702;2023-08-01T17:03:54;3.60;;;1.97;;
6902;SDS011;20232;49.408;8.702;2023-08-01T17:06:20;3.07;;;2.00;;
6902;SDS011;20232;49.408;8.702;2023-08-01T17:08:47;2.83;;;1.80;;
6902;SDS011;20232;49.408;8.702;2023-08-01T17:11:12;4.63;;;1.77;;
6902;SDS011;20232;49.408;8.702;2023-08-01T17:13:37;3.00;;;1.77;;
6902;SDS011;20232;49.408;8.702;2023-08-01T17:16:03;2.13;;;1.90;;
6902;SDS011;20232;49.408;8.702;2023-08-01T17:18:28;3.10;;;2.00;;
6902;SDS011;20232;49.408;8.702;2023-08-01T17:20:54;2.63;;;1.93;;
6902;SDS011;20232;49.408;8.702;2023-08-01T17:23:19;2.93;;;1.70;;
6902;SDS011;20232;49.408;8.702;2023-08-01T17:25:45;3.00;;;1.90;;
6902;SDS011;20232;49.408;8.702;2023-08-01T17:28:10;2.60;;;1.80;;
6902;SDS011;20232;49.408;8.702;2023-08-01T17:30:39;2.30;;;1.83;;
6902;SDS011;20232;49.408;8.702;2023-08-01T17:33:04;2.93;;;1.77;;
6902;SDS011;20232;49.408;8.702;2023-08-01T17:35:30;5.23;;;2.50;;
6902;SDS011;20232;49.408;8.702;2023-08-01T17:37:55;2.20;;;1.80;;
6902;SDS011;20232;49.408;8.702;2023-08-01T17:40:21;2.47;;;1.90;;
6902;SDS011;20232;49.408;8.702;2023-08-01T17:42:47;4.80;;;2.27;;
6902;SDS011;20232;49.408;8.702;2023-08-01T17:45:16;3.10;;;1.93;;
6902;SDS011;20232;49.408;8.702;2023-08-01T17:47:41;3.20;;;1.80;;
6902;SDS011;20232;49.408;8.702;2023-08-01T17:50:07;3.50;;;2.17;;
6902;SDS011;20232;49.408;8.702;2023-08-01T17:52:32;4.97;;;3.00;;
6902;SDS011;20232;49.408;8.702;2023-08-01T17:54:58;3.97;;;2.73;;
6902;SDS011;20232;49.408;8.702;2023-08-01T17:57:23;7.50;;;2.90;;
6902;SDS011;20232;49.408;8.702;2023-08-01T17:59:48;4.60;;;2.90;;
6902;SDS011;20232;49.408;8.702;2023-08-01T18:02:14;3.97;;;2.73;;
6902;SDS011;20232;49.408;8.702;2023-08-01T18:04:41;4.93;;;2.53;;
6902;SDS011;20232;49.408;8.702;2023-08-01T18:07:08;7.20;;;3.53;;
6902;SDS011;20232;49.408;8.702;2023-08-01T18:09:34;5.37;;;2.93;;
6902;SDS011;20232;49.408;8.702;2023-08-01T18:11:59;6.97;;;3.20;;
6902;SDS011;20232;49.408;8.702;2023-08-01T18:14:25;6.17;;;3.97;;
6902;SDS011;20232;49.408;8.702;2023-08-01T18:16:50;4.73;;;3.03;;
6902;SDS011;20232;49.408;8.702;2023-08-01T18:19:16;4.30;;;3.30;;
6902;SDS011;20232;49.408;8.702;2023-08-01T18:21:41;7.70;;;3.67;;
6902;SDS011;20232;49.408;8.702;2023-08-01T18:24:06;4.77;;;3.17;;
6902;SDS011;20232;49.408;8.702;2023-08-01T18:26:32;5.93;;;3.40;;
6902;SDS011;20232;49.408;8.702;2023-08-01T18:28:59;5.03;;;3.70;;
6902;SDS011;20232;49.408;8.702;2023-08-01T18:31:25;4.90;;;3.30;;
6902;SDS011;20232;49.408;8.702;2023-08-01T18:33:50;5.53;;;3.67;;
6902;SDS011;20232;49.408;8.702;2023-08-01T18:36:17;4.23;;;3.77;;
6902;SDS011;20232;49.408;8.702;2023-08-01T18:38:43;6.70;;;3.80;;
6902;SDS011;20232;49.408;8.702;2023-08-01T18:41:09;5.17;;;3.80;;
6902;SDS011;20232;49.408;8.702;2023-08-01T18:43:35;6.13;;;4.13;;
6902;SDS011;20232;49.408;8.702;2023-08-01T18:46:02;6.93;;;3.83;;
6902;SDS011;20232;49.408;8.702;2023-08-01T18:48:28;9.13;;;3.77;;
6902;SDS011;20232;49.408;8.702;2023-08-01T18:50:54;4.03;;;3.40;;
6902;SDS011;20232;49.408;8.702;2023-08-01T18:53:20;4.70;;;3.73;;
6902;SDS011;20232;49.408;8.702;2023-08-01T18:55:46;5.30;;;3.70;;
6902;SDS011;20232;49.408;8.702;2023-08-01T18:58:11;8.17;;;3.57;;
6902;SDS011;20232;49.408;8.702;2023-08-01T19:00:37;5.80;;;3.60;;
6902;SDS011;20232;49.408;8.702;2023-08-01T19:03:02;6.90;;;3.50;;